sensor_id;sensor_type;location;lat;lon;timestamp;pressure;altitude;pressure_sealevel;temperature;humidity
48942;BME280;35340;52.378;4.648;2023-02-22T00:01:44;101584.94;;;17.22;53.76
48942;BME280;35340;52.378;4.648;2023-02-22T00:04:36;101589.28;;;17.24;53.63
48942;BME280;35340;52.378;4.648;2023-02-22T00:07:15;101596.22;;;17.24;53.39
48942;BME280;35340;52.378;4.648;2023-02-22T00:09:48;101592.75;;;17.22;53.60
48942;BME280;35340;52.378;4.648;2023-02-22T00:12:49;101590.16;;;17.23;53.64
48942;BME280;35340;52.378;4.648;2023-02-22T00:15:20;101591.06;;;17.22;53.64
48942;BME280;35340;52.378;4.648;2023-02-22T00:17:48;101592.75;;;17.22;53.75
48942;BME280;35340;52.378;4.648;2023-02-22T00:20:15;101584.09;;;17.21;53.75
48942;BME280;35340;52.378;4.648;2023-02-22T00:22:48;101582.34;;;17.22;53.68
48942;BME280;35340;52.378;4.648;2023-02-22T00:28:38;101583.22;;;17.21;53.53
48942;BME280;35340;52.378;4.648;2023-02-22T00:37:48;101576.28;;;17.20;53.38
48942;BME280;35340;52.378;4.648;2023-02-22T00:40:17;101572.81;;;17.21;53.59
48942;BME280;35340;52.378;4.648;2023-02-22T00:42:52;101566.75;;;17.19;53.58
48942;BME280;35340;52.378;4.648;2023-02-22T00:45:24;101562.41;;;17.19;53.30
48942;BME280;35340;52.378;4.648;2023-02-22T00:47:51;101561.53;;;17.19;53.30
48942;BME280;35340;52.378;4.648;2023-02-22T00:50:36;101558.06;;;17.20;53.55
48942;BME280;35340;52.378;4.648;2023-02-22T00:53:21;101552.00;;;17.19;53.42
48942;BME280;35340;52.378;4.648;2023-02-22T00:55:47;101546.78;;;17.18;53.39
48942;BME280;35340;52.378;4.648;2023-02-22T00:58:12;101545.06;;;17.18;53.23
48942;BME280;35340;52.378;4.648;2023-02-22T01:00:48;101540.72;;;17.17;53.59
48942;BME280;35340;52.378;4.648;2023-02-22T01:03:23;101542.47;;;17.18;53.44
48942;BME280;35340;52.378;4.648;2023-02-22T01:05:52;101541.59;;;17.18;53.53
48942;BME280;35340;52.378;4.648;2023-02-22T01:08:18;101536.38;;;17.18;53.33
48942;BME280;35340;52.378;4.648;2023-02-22T01:10:51;101543.34;;;17.19;53.68
48942;BME280;35340;52.378;4.648;2023-02-22T01:13:20;101542.44;;;17.15;53.33
48942;BME280;35340;52.378;4.648;2023-02-22T01:15:50;101555.47;;;17.17;53.52
48942;BME280;35340;52.378;4.648;2023-02-22T01:18:20;101545.06;;;17.17;53.28
48942;BME280;35340;52.378;4.648;2023-02-22T01:20:50;101540.72;;;17.16;53.45
48942;BME280;35340;52.378;4.648;2023-02-22T01:23:16;101537.25;;;17.15;53.29
48942;BME280;35340;52.378;4.648;2023-02-22T01:25:44;101542.44;;;17.15;53.35
48942;BME280;35340;52.378;4.648;2023-02-22T01:28:15;101544.19;;;17.16;53.46
48942;BME280;35340;52.378;4.648;2023-02-22T01:30:52;101554.59;;;17.16;53.42
48942;BME280;35340;52.378;4.648;2023-02-22T01:33:47;101554.59;;;17.16;53.57
48942;BME280;35340;52.378;4.648;2023-02-22T01:39:41;101542.44;;;17.15;53.21
48942;BME280;35340;52.378;4.648;2023-02-22T01:42:14;101542.44;;;17.15;53.33
48942;BME280;35340;52.378;4.648;2023-02-22T01:47:51;101546.78;;;17.13;53.18
48942;BME280;35340;52.378;4.648;2023-02-22T01:54:17;101531.19;;;17.12;53.22
48942;BME280;35340;52.378;4.648;2023-02-22T01:57:01;101527.72;;;17.13;53.44
48942;BME280;35340;52.378;4.648;2023-02-22T01:59:40;101522.50;;;17.13;53.41
48942;BME280;35340;52.378;4.648;2023-02-22T02:02:08;101524.22;;;17.11;53.31
48942;BME280;35340;52.378;4.648;2023-02-22T02:04:34;101524.25;;;17.12;53.18
48942;BME280;35340;52.378;4.648;2023-02-22T02:07:03;101514.69;;;17.11;53.46
48942;BME280;35340;52.378;4.648;2023-02-22T02:09:45;101510.38;;;17.10;53.07
48942;BME280;35340;52.378;4.648;2023-02-22T02:12:15;101510.38;;;17.12;53.21
48942;BME280;35340;52.378;4.648;2023-02-22T02:14:45;101502.56;;;17.10;53.52
48942;BME280;35340;52.378;4.648;2023-02-22T02:17:15;101506.88;;;17.11;53.37
48942;BME280;35340;52.378;4.648;2023-02-22T02:25:32;101498.22;;;17.08;53.06
48942;BME280;35340;52.378;4.648;2023-02-22T02:33:34;101492.13;;;17.07;53.12
48942;BME280;35340;52.378;4.648;2023-02-22T02:36:08;101497.34;;;17.09;53.40
48942;BME280;35340;52.378;4.648;2023-02-22T02:41:14;101486.06;;;17.06;53.12
48942;BME280;35340;52.378;4.648;2023-02-22T02:43:54;101489.53;;;17.07;53.22
48942;BME280;35340;52.378;4.648;2023-02-22T02:46:55;101476.56;;;17.05;53.06
48942;BME280;35340;52.378;4.648;2023-02-22T02:49:24;101472.22;;;17.06;53.23
48942;BME280;35340;52.378;4.648;2023-02-22T02:51:53;101480.00;;;17.06;53.04
48942;BME280;35340;52.378;4.648;2023-02-22T02:54:21;101477.41;;;17.06;53.21
48942;BME280;35340;52.378;4.648;2023-02-22T02:56:51;101469.63;;;17.06;53.06
48942;BME280;35340;52.378;4.648;2023-02-22T02:59:33;101465.28;;;17.06;53.16
48942;BME280;35340;52.378;4.648;2023-02-22T03:21:30;101434.06;;;17.03;53.04
48942;BME280;35340;52.378;4.648;2023-02-22T03:24:06;101432.31;;;17.02;53.14
48942;BME280;35340;52.378;4.648;2023-02-22T03:26:41;101432.34;;;17.01;52.85
48942;BME280;35340;52.378;4.648;2023-02-22T03:29:10;101424.53;;;17.01;52.90
48942;BME280;35340;52.378;4.648;2023-02-22T03:31:56;101423.66;;;17.00;53.15
48942;BME280;35340;52.378;4.648;2023-02-22T03:34:29;101421.94;;;17.01;53.11
48942;BME280;35340;52.378;4.648;2023-02-22T03:37:00;101422.78;;;17.00;53.01
48942;BME280;35340;52.378;4.648;2023-02-22T03:39:28;101416.75;;;17.01;52.93
48942;BME280;35340;52.378;4.648;2023-02-22T03:42:13;101411.53;;;17.01;53.05
48942;BME280;35340;52.378;4.648;2023-02-22T03:44:41;101406.34;;;17.01;52.89
48942;BME280;35340;52.378;4.648;2023-02-22T03:47:13;101400.25;;;17.00;52.84
48942;BME280;35340;52.378;4.648;2023-02-22T03:49:48;101403.72;;;16.99;52.89
48942;BME280;35340;52.378;4.648;2023-02-22T03:52:15;101398.53;;;16.99;52.95
48942;BME280;35340;52.378;4.648;2023-02-22T03:54:41;101391.56;;;16.98;53.01
48942;BME280;35340;52.378;4.648;2023-02-22T03:57:19;101397.66;;;16.99;53.06
48942;BME280;35340;52.378;4.648;2023-02-22T03:59:47;101388.97;;;16.98;52.77
48942;BME280;35340;52.378;4.648;2023-02-22T04:02:12;101388.97;;;16.98;52.98
48942;BME280;35340;52.378;4.648;2023-02-22T04:04:41;101376.00;;;16.97;52.89
48942;BME280;35340;52.378;4.648;2023-02-22T04:07:06;101368.19;;;16.95;52.68
48942;BME280;35340;52.378;4.648;2023-02-22T04:09:32;101367.31;;;16.95;52.91
48942;BME280;35340;52.378;4.648;2023-02-22T04:11:57;101368.19;;;16.95;52.77
48942;BME280;35340;52.378;4.648;2023-02-22T04:14:23;101368.19;;;16.95;53.05
48942;BME280;35340;52.378;4.648;2023-02-22T04:16:48;101360.38;;;16.95;52.91
48942;BME280;35340;52.378;4.648;2023-02-22T04:19:14;101373.38;;;16.95;52.96
48942;BME280;35340;52.378;4.648;2023-02-22T04:21:39;101369.94;;;16.95;52.87
48942;BME280;35340;52.378;4.648;2023-02-22T04:24:05;101369.91;;;16.93;52.86
48942;BME280;35340;52.378;4.648;2023-02-22T04:26:30;101362.13;;;16.93;52.52
48942;BME280;35340;52.378;4.648;2023-02-22T04:28:56;101362.09;;;16.92;52.79
48942;BME280;35340;52.378;4.648;2023-02-22T04:31:21;101366.44;;;16.93;52.65
48942;BME280;35340;52.378;4.648;2023-02-22T04:33:47;101363.84;;;16.93;52.73
48942;BME280;35340;52.378;4.648;2023-02-22T04:36:15;101360.38;;;16.94;52.75
48942;BME280;35340;52.378;4.648;2023-02-22T04:38:42;101359.50;;;16.93;52.82
48942;BME280;35340;52.378;4.648;2023-02-22T04:41:10;101362.13;;;16.90;52.73
48942;BME280;35340;52.378;4.648;2023-02-22T04:43:35;101350.84;;;16.90;52.58
48942;BME280;35340;52.378;4.648;2023-02-22T04:46:01;101343.03;;;16.90;52.75
48942;BME280;35340;52.378;4.648;2023-02-22T04:48:28;101349.13;;;16.90;53.00
48942;BME280;35340;52.378;4.648;2023-02-22T04:50:54;101343.94;;;16.90;52.72
48942;BME280;35340;52.378;4.648;2023-02-22T04:53:20;101340.47;;;16.88;52.50
48942;BME280;35340;52.378;4.648;2023-02-22T04:55:46;101337.84;;;16.88;52.45
48942;BME280;35340;52.378;4.648;2023-02-22T04:58:11;101335.25;;;16.88;52.66
48942;BME280;35340;52.378;4.648;2023-02-22T05:00:37;101336.97;;;16.89;52.77
48942;BME280;35340;52.378;4.648;2023-02-22T05:03:02;101335.25;;;16.91;52.64
48942;BME280;35340;52.378;4.648;2023-02-22T05:05:28;101329.19;;;16.91;52.99
48942;BME280;35340;52.378;4.648;2023-02-22T05:07:53;101328.31;;;16.92;52.75
48942;BME280;35340;52.378;4.648;2023-02-22T05:10:19;101327.44;;;16.91;53.04
48942;BME280;35340;52.378;4.648;2023-02-22T05:12:44;101321.41;;;16.92;52.88
48942;BME280;35340;52.378;4.648;2023-02-22T05:15:15;101319.66;;;16.91;52.60
48942;BME280;35340;52.378;4.648;2023-02-22T05:17:41;101311.84;;;16.93;52.86
48942;BME280;35340;52.378;4.648;2023-02-22T05:20:06;101308.41;;;16.92;52.80
48942;BME280;35340;52.378;4.648;2023-02-22T05:22:33;101314.47;;;16.93;52.74
48942;BME280;35340;52.378;4.648;2023-02-22T05:24:58;101302.31;;;16.93;52.54
48942;BME280;35340;52.378;4.648;2023-02-22T05:27:23;101310.97;;;16.94;52.72
48942;BME280;35340;52.378;4.648;2023-02-22T05:29:49;101296.28;;;16.94;52.81
48942;BME280;35340;52.378;4.648;2023-02-22T05:32:17;101293.69;;;16.94;52.79
48942;BME280;35340;52.378;4.648;2023-02-22T05:34:45;101298.88;;;16.94;52.67
48942;BME280;35340;52.378;4.648;2023-02-22T05:37:11;101293.66;;;16.93;52.92
48942;BME280;35340;52.378;4.648;2023-02-22T05:39:39;101298.00;;;16.92;52.75
48942;BME280;35340;52.378;4.648;2023-02-22T05:42:05;101291.06;;;16.93;52.73
48942;BME280;35340;52.378;4.648;2023-02-22T05:44:30;101288.47;;;16.94;52.80
48942;BME280;35340;52.378;4.648;2023-02-22T05:46:55;101286.72;;;16.95;52.76
48942;BME280;35340;52.378;4.648;2023-02-22T05:49:21;101284.09;;;16.92;52.98
48942;BME280;35340;52.378;4.648;2023-02-22T05:51:46;101288.47;;;16.94;52.81
48942;BME280;35340;52.378;4.648;2023-02-22T05:54:11;101283.28;;;16.94;52.79
48942;BME280;35340;52.378;4.648;2023-02-22T05:56:37;101290.19;;;16.94;53.01
48942;BME280;35340;52.378;4.648;2023-02-22T05:59:02;101284.13;;;16.95;52.77
48942;BME280;35340;52.378;4.648;2023-02-22T06:01:28;101280.66;;;16.94;52.61
48942;BME280;35340;52.378;4.648;2023-02-22T06:03:53;101282.38;;;16.95;53.14
48942;BME280;35340;52.378;4.648;2023-02-22T06:06:19;101282.38;;;16.95;52.75
48942;BME280;35340;52.378;4.648;2023-02-22T06:08:45;101286.75;;;16.96;52.89
48942;BME280;35340;52.378;4.648;2023-02-22T06:11:11;101286.72;;;16.95;52.85
48942;BME280;35340;52.378;4.648;2023-02-22T06:13:37;101284.13;;;16.98;52.67
48942;BME280;35340;52.378;4.648;2023-02-22T06:16:03;101287.59;;;16.97;52.84
48942;BME280;35340;52.378;4.648;2023-02-22T06:18:29;101285.00;;;16.97;52.86
48942;BME280;35340;52.378;4.648;2023-02-22T06:20:56;101285.00;;;16.95;52.70
48942;BME280;35340;52.378;4.648;2023-02-22T06:23:22;101288.47;;;16.97;52.67
48942;BME280;35340;52.378;4.648;2023-02-22T06:25:48;101287.56;;;16.98;52.74
48942;BME280;35340;52.378;4.648;2023-02-22T06:28:13;101283.28;;;16.99;52.60
48942;BME280;35340;52.378;4.648;2023-02-22T06:30:40;101280.66;;;16.97;52.79
48942;BME280;35340;52.378;4.648;2023-02-22T06:33:07;101282.41;;;16.97;52.60
48942;BME280;35340;52.378;4.648;2023-02-22T06:35:32;101284.13;;;16.98;52.91
48942;BME280;35340;52.378;4.648;2023-02-22T06:37:58;101279.78;;;16.98;53.06
48942;BME280;35340;52.378;4.648;2023-02-22T06:40:23;101274.56;;;16.98;53.14
48942;BME280;35340;52.378;4.648;2023-02-22T06:42:53;101277.19;;;17.00;53.05
48942;BME280;35340;52.378;4.648;2023-02-22T06:45:19;101281.53;;;16.99;53.13
48942;BME280;35340;52.378;4.648;2023-02-22T06:47:45;101279.78;;;17.00;53.06
48942;BME280;35340;52.378;4.648;2023-02-22T06:50:24;101278.91;;;16.98;53.28
48942;BME280;35340;52.378;4.648;2023-02-22T06:52:50;101278.03;;;17.11;53.27
48942;BME280;35340;52.378;4.648;2023-02-22T06:55:18;101274.59;;;17.18;53.14
48942;BME280;35340;52.378;4.648;2023-02-22T06:57:44;101265.03;;;17.23;53.26
48942;BME280;35340;52.378;4.648;2023-02-22T07:00:10;101265.91;;;17.28;52.93
48942;BME280;35340;52.378;4.648;2023-02-22T07:02:35;101269.38;;;17.29;53.02
48942;BME280;35340;52.378;4.648;2023-02-22T07:05:01;101272.84;;;17.30;53.02
48942;BME280;35340;52.378;4.648;2023-02-22T07:07:26;101263.28;;;17.30;52.97
48942;BME280;35340;52.378;4.648;2023-02-22T07:09:52;101268.50;;;17.30;52.93
48942;BME280;35340;52.378;4.648;2023-02-22T07:12:17;101266.75;;;17.31;53.09
48942;BME280;35340;52.378;4.648;2023-02-22T07:14:42;101263.31;;;17.32;52.68
48942;BME280;35340;52.378;4.648;2023-02-22T07:17:08;101257.22;;;17.33;52.89
48942;BME280;35340;52.378;4.648;2023-02-22T07:19:33;101262.41;;;17.33;52.84
48942;BME280;35340;52.378;4.648;2023-02-22T07:21:59;101265.88;;;17.33;52.80
48942;BME280;35340;52.378;4.648;2023-02-22T07:24:25;101260.69;;;17.35;52.67
48942;BME280;35340;52.378;4.648;2023-02-22T07:26:52;101261.56;;;17.34;52.63
48942;BME280;35340;52.378;4.648;2023-02-22T07:29:18;101260.69;;;17.35;52.55
48942;BME280;35340;52.378;4.648;2023-02-22T07:31:43;101269.34;;;17.35;52.66
48942;BME280;35340;52.378;4.648;2023-02-22T07:34:09;101267.63;;;17.36;52.63
48942;BME280;35340;52.378;4.648;2023-02-22T07:36:34;101272.81;;;17.37;52.36
48942;BME280;35340;52.378;4.648;2023-02-22T07:38:59;101274.56;;;17.37;52.51
48942;BME280;35340;52.378;4.648;2023-02-22T07:41:25;101271.09;;;17.38;52.49
48942;BME280;35340;52.378;4.648;2023-02-22T07:43:50;101255.50;;;17.38;52.16
48942;BME280;35340;52.378;4.648;2023-02-22T07:46:16;101265.88;;;17.39;52.39
48942;BME280;35340;52.378;4.648;2023-02-22T07:48:41;101266.75;;;17.40;52.26
48942;BME280;35340;52.378;4.648;2023-02-22T07:51:07;101272.81;;;17.42;52.29
48942;BME280;35340;52.378;4.648;2023-02-22T07:53:33;101272.81;;;17.40;51.90
48942;BME280;35340;52.378;4.648;2023-02-22T07:56:00;101271.94;;;17.41;51.42
48942;BME280;35340;52.378;4.648;2023-02-22T07:58:28;101276.28;;;17.41;51.98
48942;BME280;35340;52.378;4.648;2023-02-22T08:00:54;101282.34;;;17.43;51.96
48942;BME280;35340;52.378;4.648;2023-02-22T08:03:21;101279.78;;;17.38;52.11
48942;BME280;35340;52.378;4.648;2023-02-22T08:05:50;101275.41;;;17.42;51.86
48942;BME280;35340;52.378;4.648;2023-02-22T08:08:16;101271.06;;;17.45;51.55
48942;BME280;35340;52.378;4.648;2023-02-22T08:10:42;101265.00;;;17.48;51.77
48942;BME280;35340;52.378;4.648;2023-02-22T08:13:08;101263.25;;;17.50;51.90
48942;BME280;35340;52.378;4.648;2023-02-22T08:15:39;101263.22;;;17.55;51.54
48942;BME280;35340;52.378;4.648;2023-02-22T08:18:08;101270.16;;;17.59;51.63
48942;BME280;35340;52.378;4.648;2023-02-22T08:20:35;101267.56;;;17.59;51.73
48942;BME280;35340;52.378;4.648;2023-02-22T08:23:08;101275.38;;;17.60;51.62
48942;BME280;35340;52.378;4.648;2023-02-22T08:25:34;101270.19;;;17.60;51.95
48942;BME280;35340;52.378;4.648;2023-02-22T08:28:08;101263.22;;;17.61;51.72
48942;BME280;35340;52.378;4.648;2023-02-22T08:30:37;101256.28;;;17.61;51.59
48942;BME280;35340;52.378;4.648;2023-02-22T08:33:03;101255.41;;;17.61;51.62
48942;BME280;35340;52.378;4.648;2023-02-22T08:35:30;101258.03;;;17.61;51.76
48942;BME280;35340;52.378;4.648;2023-02-22T08:38:02;101264.09;;;17.61;51.59
48942;BME280;35340;52.378;4.648;2023-02-22T08:40:30;101268.44;;;17.62;51.54
48942;BME280;35340;52.378;4.648;2023-02-22T08:42:56;101263.22;;;17.61;51.61
48942;BME280;35340;52.378;4.648;2023-02-22T08:45:21;101267.56;;;17.62;51.52
48942;BME280;35340;52.378;4.648;2023-02-22T08:47:48;101263.22;;;17.61;51.70
48942;BME280;35340;52.378;4.648;2023-02-22T08:50:26;101260.63;;;17.61;51.78
48942;BME280;35340;52.378;4.648;2023-02-22T08:52:53;101248.47;;;17.63;51.59
48942;BME280;35340;52.378;4.648;2023-02-22T08:55:20;101252.81;;;17.64;51.51
48942;BME280;35340;52.378;4.648;2023-02-22T08:57:46;101245.88;;;17.64;51.38
48942;BME280;35340;52.378;4.648;2023-02-22T09:00:12;101252.78;;;17.65;51.34
48942;BME280;35340;52.378;4.648;2023-02-22T09:02:37;101245.00;;;17.65;51.27
48942;BME280;35340;52.378;4.648;2023-02-22T09:05:03;101239.78;;;17.65;51.38
48942;BME280;35340;52.378;4.648;2023-02-22T09:07:30;101230.25;;;17.66;51.27
48942;BME280;35340;52.378;4.648;2023-02-22T09:09:55;101230.25;;;17.69;51.32
48942;BME280;35340;52.378;4.648;2023-02-22T09:12:21;101224.19;;;17.68;51.31
48942;BME280;35340;52.378;4.648;2023-02-22T09:14:46;101214.63;;;17.69;51.29
48942;BME280;35340;52.378;4.648;2023-02-22T09:17:11;101230.25;;;17.71;51.25
48942;BME280;35340;52.378;4.648;2023-02-22T09:19:37;101225.88;;;17.69;51.29
48942;BME280;35340;52.378;4.648;2023-02-22T09:22:02;101217.22;;;17.71;51.35
48942;BME280;35340;52.378;4.648;2023-02-22T09:24:27;101222.44;;;17.69;51.30
48942;BME280;35340;52.378;4.648;2023-02-22T09:26:53;101222.44;;;17.71;51.32
48942;BME280;35340;52.378;4.648;2023-02-22T09:29:25;101214.59;;;17.72;51.20
48942;BME280;35340;52.378;4.648;2023-02-22T09:31:55;101206.78;;;17.74;51.10
48942;BME280;35340;52.378;4.648;2023-02-22T09:34:22;101198.97;;;17.74;51.29
48942;BME280;35340;52.378;4.648;2023-02-22T09:36:54;101194.63;;;17.74;51.21
48942;BME280;35340;52.378;4.648;2023-02-22T09:39:19;101193.78;;;17.75;51.19
48942;BME280;35340;52.378;4.648;2023-02-22T09:45:05;101193.75;;;17.78;51.14
48942;BME280;35340;52.378;4.648;2023-02-22T09:47:58;101181.59;;;17.79;51.14
48942;BME280;35340;52.378;4.648;2023-02-22T09:50:36;101175.53;;;17.80;50.85
48942;BME280;35340;52.378;4.648;2023-02-22T09:53:13;101179.88;;;17.82;50.99
48942;BME280;35340;52.378;4.648;2023-02-22T09:55:47;101185.94;;;17.84;51.06
48942;BME280;35340;52.378;4.648;2023-02-22T09:58:31;101174.66;;;17.87;51.20
48942;BME280;35340;52.378;4.648;2023-02-22T10:01:28;101188.53;;;17.87;50.76
48942;BME280;35340;52.378;4.648;2023-02-22T10:04:18;101208.47;;;17.92;51.06
48942;BME280;35340;52.378;4.648;2023-02-22T10:07:05;101224.09;;;17.95;51.10
48942;BME280;35340;52.378;4.648;2023-02-22T10:09:40;101224.06;;;17.98;50.77
48942;BME280;35340;52.378;4.648;2023-02-22T10:12:58;101221.47;;;17.99;50.77
48942;BME280;35340;52.378;4.648;2023-02-22T10:23:34;101226.69;;;17.98;50.94
48942;BME280;35340;52.378;4.648;2023-02-22T10:26:14;101220.59;;;17.97;50.62
48942;BME280;35340;52.378;4.648;2023-02-22T10:28:51;101208.44;;;17.98;50.83
48942;BME280;35340;52.378;4.648;2023-02-22T10:31:27;101204.09;;;18.00;50.75
48942;BME280;35340;52.378;4.648;2023-02-22T10:33:58;101204.09;;;18.01;50.81
48942;BME280;35340;52.378;4.648;2023-02-22T10:36:25;101193.66;;;18.03;50.55
48942;BME280;35340;52.378;4.648;2023-02-22T10:38:57;101186.69;;;18.05;50.58
48942;BME280;35340;52.378;4.648;2023-02-22T10:41:32;101185.84;;;18.06;50.55
48942;BME280;35340;52.378;4.648;2023-02-22T10:44:00;101191.03;;;18.06;50.58
48942;BME280;35340;52.378;4.648;2023-02-22T10:46:28;101179.75;;;18.07;50.93
48942;BME280;35340;52.378;4.648;2023-02-22T10:49:01;101180.63;;;18.06;50.78
48942;BME280;35340;52.378;4.648;2023-02-22T10:51:29;101209.28;;;18.03;50.68
48942;BME280;35340;52.378;4.648;2023-02-22T10:54:25;101214.50;;;18.00;50.92
48942;BME280;35340;52.378;4.648;2023-02-22T10:56:52;101213.66;;;17.98;50.82
48942;BME280;35340;52.378;4.648;2023-02-22T10:59:28;101221.47;;;17.98;50.82
48942;BME280;35340;52.378;4.648;2023-02-22T11:01:54;101222.31;;;18.00;50.77
48942;BME280;35340;52.378;4.648;2023-02-22T11:04:20;101223.22;;;17.99;50.66
48942;BME280;35340;52.378;4.648;2023-02-22T11:09:22;101211.03;;;18.05;50.54
48942;BME280;35340;52.378;4.648;2023-02-22T11:11:50;101204.06;;;18.07;50.52
48942;BME280;35340;52.378;4.648;2023-02-22T11:14:32;101205.78;;;18.10;50.51
48942;BME280;35340;52.378;4.648;2023-02-22T11:16:59;101197.97;;;18.10;50.75
48942;BME280;35340;52.378;4.648;2023-02-22T11:19:27;101199.69;;;18.11;50.57
48942;BME280;35340;52.378;4.648;2023-02-22T11:22:08;101203.16;;;18.12;50.77
48942;BME280;35340;52.378;4.648;2023-02-22T11:24:44;101207.50;;;18.13;50.58
48942;BME280;35340;52.378;4.648;2023-02-22T11:27:31;101201.44;;;18.12;50.53
48942;BME280;35340;52.378;4.648;2023-02-22T11:30:21;101197.09;;;18.11;50.65
48942;BME280;35340;52.378;4.648;2023-02-22T11:35:56;101184.91;;;18.13;50.86
48942;BME280;35340;52.378;4.648;2023-02-22T11:38:24;101185.78;;;18.14;50.88
48942;BME280;35340;52.378;4.648;2023-02-22T11:43:43;101168.44;;;18.14;50.85
48942;BME280;35340;52.378;4.648;2023-02-22T11:46:22;101160.63;;;18.13;51.03
48942;BME280;35340;52.378;4.648;2023-02-22T11:49:02;101148.44;;;18.12;50.96
48942;BME280;35340;52.378;4.648;2023-02-22T11:51:46;101142.38;;;18.11;51.11
48942;BME280;35340;52.378;4.648;2023-02-22T11:54:46;101134.56;;;18.11;51.05
48942;BME280;35340;52.378;4.648;2023-02-22T11:57:43;101132.81;;;18.13;51.20
48942;BME280;35340;52.378;4.648;2023-02-22T12:00:26;101139.78;;;18.14;51.04
48942;BME280;35340;52.378;4.648;2023-02-22T12:06:17;101117.16;;;18.18;50.79
48942;BME280;35340;52.378;4.648;2023-02-22T12:12:17;101119.75;;;18.19;50.85
48942;BME280;35340;52.378;4.648;2023-02-22T12:17:25;101123.22;;;18.20;51.01
48942;BME280;35340;52.378;4.648;2023-02-22T12:19:59;101135.41;;;18.18;51.29
48942;BME280;35340;52.378;4.648;2023-02-22T12:22:35;101141.50;;;18.18;50.92
48942;BME280;35340;52.378;4.648;2023-02-22T12:27:46;101137.13;;;18.17;50.88
48942;BME280;35340;52.378;4.648;2023-02-22T12:30:34;101129.28;;;18.22;51.02
48942;BME280;35340;52.378;4.648;2023-02-22T12:33:08;101131.00;;;18.26;51.02
48942;BME280;35340;52.378;4.648;2023-02-22T12:35:42;101127.53;;;18.27;50.87
48942;BME280;35340;52.378;4.648;2023-02-22T12:43:24;101121.38;;;18.33;50.71
48942;BME280;35340;52.378;4.648;2023-02-22T12:46:23;101117.03;;;18.35;50.78
48942;BME280;35340;52.378;4.648;2023-02-22T12:48:57;101114.44;;;18.35;50.62
48942;BME280;35340;52.378;4.648;2023-02-22T12:59:24;101118.75;;;18.37;50.50
48942;BME280;35340;52.378;4.648;2023-02-22T13:01:58;101120.50;;;18.37;50.65
48942;BME280;35340;52.378;4.648;2023-02-22T13:04:24;101127.44;;;18.36;50.43
48942;BME280;35340;52.378;4.648;2023-02-22T13:06:56;101132.66;;;18.35;50.33
48942;BME280;35340;52.378;4.648;2023-02-22T13:09:57;101135.28;;;18.35;50.47
48942;BME280;35340;52.378;4.648;2023-02-22T13:18:19;101130.91;;;18.37;50.17
48942;BME280;35340;52.378;4.648;2023-02-22T13:20:56;101131.78;;;18.39;50.55
48942;BME280;35340;52.378;4.648;2023-02-22T13:29:04;101118.75;;;18.39;50.59
48942;BME280;35340;52.378;4.648;2023-02-22T13:31:48;101116.13;;;18.39;50.59
48942;BME280;35340;52.378;4.648;2023-02-22T13:49:55;101111.78;;;18.42;50.45
48942;BME280;35340;52.378;4.648;2023-02-22T13:52:26;101121.31;;;18.42;50.23
48942;BME280;35340;52.378;4.648;2023-02-22T13:55:07;101109.16;;;18.42;50.43
48942;BME280;35340;52.378;4.648;2023-02-22T13:57:41;101123.06;;;18.44;50.55
48942;BME280;35340;52.378;4.648;2023-02-22T14:10:54;101115.25;;;18.43;50.32
48942;BME280;35340;52.378;4.648;2023-02-22T14:13:28;101116.09;;;18.45;50.31
48942;BME280;35340;52.378;4.648;2023-02-22T14:21:10;101123.00;;;18.46;50.31
48942;BME280;35340;52.378;4.648;2023-02-22T14:23:40;101117.84;;;18.44;50.26
48942;BME280;35340;52.378;4.648;2023-02-22T14:28:55;101126.47;;;18.46;50.42
48942;BME280;35340;52.378;4.648;2023-02-22T14:31:25;101128.22;;;18.47;50.37
48942;BME280;35340;52.378;4.648;2023-02-22T14:34:14;101129.06;;;18.48;50.28
48942;BME280;35340;52.378;4.648;2023-02-22T14:37:00;101130.84;;;18.46;50.40
48942;BME280;35340;52.378;4.648;2023-02-22T14:39:45;101131.69;;;18.48;50.23
48942;BME280;35340;52.378;4.648;2023-02-22T14:42:32;101130.81;;;18.47;50.49
48942;BME280;35340;52.378;4.648;2023-02-22T14:45:09;101132.56;;;18.47;50.38
48942;BME280;35340;52.378;4.648;2023-02-22T14:55:40;101128.22;;;18.49;50.43
48942;BME280;35340;52.378;4.648;2023-02-22T14:58:22;101138.63;;;18.49;50.27
48942;BME280;35340;52.378;4.648;2023-02-22T15:00:51;101149.06;;;18.49;50.17
48942;BME280;35340;52.378;4.648;2023-02-22T15:05:46;101142.09;;;18.48;50.40
48942;BME280;35340;52.378;4.648;2023-02-22T15:08:15;101149.06;;;18.49;50.38
48942;BME280;35340;52.378;4.648;2023-02-22T15:10:46;101150.78;;;18.48;50.31
48942;BME280;35340;52.378;4.648;2023-02-22T15:13:20;101154.28;;;18.49;50.30
48942;BME280;35340;52.378;4.648;2023-02-22T15:15:55;101155.13;;;18.49;50.35
48942;BME280;35340;52.378;4.648;2023-02-22T15:21:03;101158.59;;;18.50;50.50
48942;BME280;35340;52.378;4.648;2023-02-22T15:23:41;101156.88;;;18.49;50.40
48942;BME280;35340;52.378;4.648;2023-02-22T15:26:16;101166.41;;;18.48;50.38
48942;BME280;35340;52.378;4.648;2023-02-22T15:28:42;101166.47;;;18.47;50.27
48942;BME280;35340;52.378;4.648;2023-02-22T15:33:48;101170.78;;;18.46;50.46
48942;BME280;35340;52.378;4.648;2023-02-22T15:36:18;101167.31;;;18.47;50.62
48942;BME280;35340;52.378;4.648;2023-02-22T15:38:51;101180.34;;;18.49;50.55
48942;BME280;35340;52.378;4.648;2023-02-22T15:41:30;101169.91;;;18.47;50.42
48942;BME280;35340;52.378;4.648;2023-02-22T15:46:25;101172.53;;;18.47;50.60
48942;BME280;35340;52.378;4.648;2023-02-22T15:49:23;101170.78;;;18.48;50.45
48942;BME280;35340;52.378;4.648;2023-02-22T15:52:23;101169.91;;;18.49;50.66
48942;BME280;35340;52.378;4.648;2023-02-22T15:54:52;101182.94;;;18.49;50.75